sensor_id;sensor_type;location;lat;lon;timestamp;pressure;altitude;pressure_sealevel;temperature;humidity
48624;BME280;34422;45.802;16.114;2023-04-25T00:02:07;99608.81;;;10.58;100.00
48624;BME280;34422;45.802;16.114;2023-04-25T00:04:35;99613.00;;;10.54;100.00
48624;BME280;34422;45.802;16.114;2023-04-25T00:07:01;99609.47;;;10.53;100.00
48624;BME280;34422;45.802;16.114;2023-04-25T00:09:28;99609.25;;;10.55;100.00
48624;BME280;34422;45.802;16.114;2023-04-25T00:11:55;99602.66;;;10.51;100.00
48624;BME280;34422;45.802;16.114;2023-04-25T00:14:22;99604.31;;;10.52;100.00
48624;BME280;34422;45.802;16.114;2023-04-25T00:16:49;99605.13;;;10.52;100.00
48624;BME280;34422;45.802;16.114;2023-04-25T00:19:18;99604.66;;;10.55;100.00
48624;BME280;34422;45.802;16.114;2023-04-25T00:21:45;99602.66;;;10.51;100.00
48624;BME280;34422;45.802;16.114;2023-04-25T00:24:12;99612.72;;;10.44;100.00
48624;BME280;34422;45.802;16.114;2023-04-25T00:26:39;99605.53;;;10.38;100.00
48624;BME280;34422;45.802;16.114;2023-04-25T00:29:06;99613.28;;;10.34;100.00
48624;BME280;34422;45.802;16.114;2023-04-25T00:31:33;99616.22;;;10.32;100.00
48624;BME280;34422;45.802;16.114;2023-04-25T00:33:59;99618.91;;;10.32;100.00
48624;BME280;34422;45.802;16.114;2023-04-25T00:36:26;99609.59;;;10.28;100.00
48624;BME280;34422;45.802;16.114;2023-04-25T00:38:54;99613.00;;;10.24;100.00
48624;BME280;34422;45.802;16.114;2023-04-25T00:41:21;99610.63;;;10.27;100.00
48624;BME280;34422;45.802;16.114;2023-04-25T00:43:48;99607.81;;;10.22;100.00
48624;BME280;34422;45.802;16.114;2023-04-25T00:46:16;99607.81;;;10.22;100.00
48624;BME280;34422;45.802;16.114;2023-04-25T00:48:43;99600.88;;;10.26;100.00
48624;BME280;34422;45.802;16.114;2023-04-25T00:51:13;99597.81;;;10.23;100.00
48624;BME280;34422;45.802;16.114;2023-04-25T00:53:40;99606.53;;;10.25;100.00
48624;BME280;34422;45.802;16.114;2023-04-25T00:56:07;99596.69;;;10.30;100.00
48624;BME280;34422;45.802;16.114;2023-04-25T00:58:34;99591.50;;;10.29;100.00
48624;BME280;34422;45.802;16.114;2023-04-25T01:01:01;99593.13;;;10.12;100.00
48624;BME280;34422;45.802;16.114;2023-04-25T01:03:31;99585.69;;;10.07;100.00
48624;BME280;34422;45.802;16.114;2023-04-25T01:05:59;99576.81;;;10.00;100.00
48624;BME280;34422;45.802;16.114;2023-04-25T01:08:26;99586.53;;;10.08;100.00
48624;BME280;34422;45.802;16.114;2023-04-25T01:10:52;99588.53;;;10.12;100.00
48624;BME280;34422;45.802;16.114;2023-04-25T01:13:19;99588.19;;;10.09;100.00
48624;BME280;34422;45.802;16.114;2023-04-25T01:15:46;99589.00;;;10.09;100.00
48624;BME280;34422;45.802;16.114;2023-04-25T01:18:13;99595.59;;;10.13;100.00
48624;BME280;34422;45.802;16.114;2023-04-25T01:20:41;99595.59;;;10.13;100.00
48624;BME280;34422;45.802;16.114;2023-04-25T01:23:08;99579.38;;;10.13;100.00
48624;BME280;34422;45.802;16.114;2023-04-25T01:25:35;99582.69;;;10.15;100.00
48624;BME280;34422;45.802;16.114;2023-04-25T01:28:03;99601.38;;;10.17;100.00
48624;BME280;34422;45.802;16.114;2023-04-25T01:30:30;99598.91;;;10.15;100.00
48624;BME280;34422;45.802;16.114;2023-04-25T01:32:57;99602.22;;;10.17;100.00
48624;BME280;34422;45.802;16.114;2023-04-25T01:35:24;99585.38;;;10.15;100.00
48624;BME280;34422;45.802;16.114;2023-04-25T01:37:51;99597.44;;;10.19;100.00
48624;BME280;34422;45.802;16.114;2023-04-25T01:40:18;99595.34;;;10.21;100.00
48624;BME280;34422;45.802;16.114;2023-04-25T01:42:47;99593.91;;;10.19;100.00
48624;BME280;34422;45.802;16.114;2023-04-25T01:45:14;99595.94;;;10.23;100.00
48624;BME280;34422;45.802;16.114;2023-04-25T01:47:41;99588.78;;;10.29;100.00
48624;BME280;34422;45.802;16.114;2023-04-25T01:50:10;99587.69;;;10.18;100.00
48624;BME280;34422;45.802;16.114;2023-04-25T01:52:38;99593.13;;;10.12;100.00
48624;BME280;34422;45.802;16.114;2023-04-25T01:55:05;99581.50;;;10.11;100.00
48624;BME280;34422;45.802;16.114;2023-04-25T01:57:32;99584.28;;;10.05;100.00
48624;BME280;34422;45.802;16.114;2023-04-25T02:00:01;99581.19;;;10.01;100.00
48624;BME280;34422;45.802;16.114;2023-04-25T02:02:29;99585.53;;;10.02;100.00
48624;BME280;34422;45.802;16.114;2023-04-25T02:04:56;99593.66;;;10.02;100.00
48624;BME280;34422;45.802;16.114;2023-04-25T02:07:22;99587.50;;;9.95;100.00
48624;BME280;34422;45.802;16.114;2023-04-25T02:09:49;99583.59;;;9.91;100.00
48624;BME280;34422;45.802;16.114;2023-04-25T02:12:16;99586.75;;;9.88;100.00
48624;BME280;34422;45.802;16.114;2023-04-25T02:14:43;99590.03;;;9.90;100.00
48624;BME280;34422;45.802;16.114;2023-04-25T02:17:09;99592.53;;;9.91;100.00
48624;BME280;34422;45.802;16.114;2023-04-25T02:19:36;99590.97;;;9.84;100.00
48624;BME280;34422;45.802;16.114;2023-04-25T02:22:03;99590.97;;;9.84;100.00
48624;BME280;34422;45.802;16.114;2023-04-25T02:24:30;99583.91;;;9.83;100.00
48624;BME280;34422;45.802;16.114;2023-04-25T02:26:57;99583.91;;;9.83;100.00
48624;BME280;34422;45.802;16.114;2023-04-25T02:29:24;99584.78;;;9.77;100.00
48624;BME280;34422;45.802;16.114;2023-04-25T02:31:50;99580.88;;;9.73;100.00
48624;BME280;34422;45.802;16.114;2023-04-25T02:34:17;99593.50;;;9.79;100.00
48624;BME280;34422;45.802;16.114;2023-04-25T02:36:44;99593.50;;;9.79;100.00
48624;BME280;34422;45.802;16.114;2023-04-25T02:39:11;99595.97;;;9.80;100.00
48624;BME280;34422;45.802;16.114;2023-04-25T02:41:38;99595.75;;;9.82;100.00
48624;BME280;34422;45.802;16.114;2023-04-25T02:44:04;99597.47;;;9.76;100.00
48624;BME280;34422;45.802;16.114;2023-04-25T02:46:31;99596.38;;;9.84;100.00
48624;BME280;34422;45.802;16.114;2023-04-25T02:48:58;99593.06;;;9.82;100.00
48624;BME280;34422;45.802;16.114;2023-04-25T02:51:25;99589.16;;;9.78;100.00
48624;BME280;34422;45.802;16.114;2023-04-25T02:53:52;99592.22;;;9.81;100.00
48624;BME280;34422;45.802;16.114;2023-04-25T02:56:19;99591.03;;;9.77;100.00
48624;BME280;34422;45.802;16.114;2023-04-25T02:58:46;99599.50;;;9.81;100.00
48624;BME280;34422;45.802;16.114;2023-04-25T03:01:12;99594.72;;;9.83;100.00
48624;BME280;34422;45.802;16.114;2023-04-25T03:03:39;99590.97;;;9.84;100.00
48624;BME280;34422;45.802;16.114;2023-04-25T03:06:06;99595.53;;;9.83;100.00
48624;BME280;34422;45.802;16.114;2023-04-25T03:08:33;99587.66;;;9.82;100.00
48624;BME280;34422;45.802;16.114;2023-04-25T03:11:00;99582.84;;;9.84;100.00
48624;BME280;34422;45.802;16.114;2023-04-25T03:13:28;99595.91;;;9.87;100.00
48624;BME280;34422;45.802;16.114;2023-04-25T03:15:56;99596.28;;;9.90;100.00
48624;BME280;34422;45.802;16.114;2023-04-25T03:18:23;99591.09;;;9.89;100.00
48624;BME280;34422;45.802;16.114;2023-04-25T03:20:49;99583.00;;;9.89;100.00
48624;BME280;34422;45.802;16.114;2023-04-25T03:23:16;99583.00;;;9.89;100.00
48624;BME280;34422;45.802;16.114;2023-04-25T03:25:43;99586.28;;;9.91;100.00
48624;BME280;34422;45.802;16.114;2023-04-25T03:28:10;99575.03;;;9.94;100.00
48624;BME280;34422;45.802;16.114;2023-04-25T03:30:36;99572.72;;;9.97;100.00
48624;BME280;34422;45.802;16.114;2023-04-25T03:33:03;99567.53;;;9.96;100.00
48624;BME280;34422;45.802;16.114;2023-04-25T03:35:30;99569.19;;;9.97;100.00
48624;BME280;34422;45.802;16.114;2023-04-25T03:37:57;99563.47;;;9.87;100.00
48624;BME280;34422;45.802;16.114;2023-04-25T03:40:23;99568.88;;;9.87;100.00
48624;BME280;34422;45.802;16.114;2023-04-25T03:42:50;99580.06;;;9.90;100.00
48624;BME280;34422;45.802;16.114;2023-04-25T03:45:17;99581.28;;;9.94;100.00
48624;BME280;34422;45.802;16.114;2023-04-25T03:47:44;99577.13;;;9.92;100.00
48624;BME280;34422;45.802;16.114;2023-04-25T03:50:11;99574.66;;;9.90;100.00
48624;BME280;34422;45.802;16.114;2023-04-25T03:52:37;99584.66;;;9.90;100.00
48624;BME280;34422;45.802;16.114;2023-04-25T03:55:04;99600.81;;;9.96;100.00
48624;BME280;34422;45.802;16.114;2023-04-25T03:57:31;99593.66;;;10.02;100.00
48624;BME280;34422;45.802;16.114;2023-04-25T03:59:58;99595.75;;;10.00;100.00
48624;BME280;34422;45.802;16.114;2023-04-25T04:02:25;99593.03;;;10.00;100.00
48624;BME280;34422;45.802;16.114;2023-04-25T04:04:51;99592.00;;;10.01;100.00
48624;BME280;34422;45.802;16.114;2023-04-25T04:07:18;99592.59;;;10.03;100.00
48624;BME280;34422;45.802;16.114;2023-04-25T04:09:45;99604.47;;;10.02;100.00
48624;BME280;34422;45.802;16.114;2023-04-25T04:12:11;99592.44;;;9.98;100.00
48624;BME280;34422;45.802;16.114;2023-04-25T04:14:38;99595.31;;;10.03;100.00
48624;BME280;34422;45.802;16.114;2023-04-25T04:17:05;99590.34;;;10.00;100.00
48624;BME280;34422;45.802;16.114;2023-04-25T04:19:32;99591.66;;;9.97;100.00
48624;BME280;34422;45.802;16.114;2023-04-25T04:21:59;99590.34;;;10.00;100.00
48624;BME280;34422;45.802;16.114;2023-04-25T04:24:26;99595.84;;;9.93;100.00
48624;BME280;34422;45.802;16.114;2023-04-25T04:26:52;99595.63;;;9.95;100.00
48624;BME280;34422;45.802;16.114;2023-04-25T04:29:19;99597.94;;;9.91;100.00
48624;BME280;34422;45.802;16.114;2023-04-25T04:31:48;99598.00;;;9.85;100.00
48624;BME280;34422;45.802;16.114;2023-04-25T04:34:16;99601.16;;;9.82;100.00
48624;BME280;34422;45.802;16.114;2023-04-25T04:36:43;99601.38;;;9.80;100.00
48624;BME280;34422;45.802;16.114;2023-04-25T04:39:12;99608.44;;;9.81;100.00
48624;BME280;34422;45.802;16.114;2023-04-25T04:41:39;99598.06;;;9.78;100.00
48624;BME280;34422;45.802;16.114;2023-04-25T04:44:06;99615.84;;;9.86;100.00
48624;BME280;34422;45.802;16.114;2023-04-25T04:46:34;99624.13;;;9.91;100.00
48624;BME280;34422;45.802;16.114;2023-04-25T04:49:04;99627.34;;;9.99;100.00
48624;BME280;34422;45.802;16.114;2023-04-25T04:51:31;99620.53;;;9.97;100.00
48624;BME280;34422;45.802;16.114;2023-04-25T04:53:58;99619.84;;;10.02;100.00
48624;BME280;34422;45.802;16.114;2023-04-25T04:56:29;99622.78;;;10.00;100.00
48624;BME280;34422;45.802;16.114;2023-04-25T04:58:57;99627.13;;;10.01;100.00
48624;BME280;34422;45.802;16.114;2023-04-25T05:01:25;99626.03;;;10.09;100.00
48624;BME280;34422;45.802;16.114;2023-04-25T05:03:52;99624.00;;;10.04;100.00
48624;BME280;34422;45.802;16.114;2023-04-25T05:06:19;99624.16;;;10.09;100.00
48624;BME280;34422;45.802;16.114;2023-04-25T05:08:46;99627.28;;;10.06;100.00
48624;BME280;34422;45.802;16.114;2023-04-25T05:11:13;99621.44;;;10.09;100.00
48624;BME280;34422;45.802;16.114;2023-04-25T05:13:39;99625.94;;;10.15;100.00
48624;BME280;34422;45.802;16.114;2023-04-25T05:16:06;99628.75;;;10.27;100.00
48624;BME280;34422;45.802;16.114;2023-04-25T05:18:33;99624.53;;;10.31;100.00
48624;BME280;34422;45.802;16.114;2023-04-25T05:20:59;99624.81;;;10.41;100.00
48624;BME280;34422;45.802;16.114;2023-04-25T05:23:26;99622.88;;;10.48;100.00
48624;BME280;34422;45.802;16.114;2023-04-25T05:25:54;99626.50;;;10.72;100.00
48624;BME280;34422;45.802;16.114;2023-04-25T05:28:21;99624.38;;;10.92;100.00
48624;BME280;34422;45.802;16.114;2023-04-25T05:30:48;99622.78;;;11.15;100.00
48624;BME280;34422;45.802;16.114;2023-04-25T05:33:15;99631.91;;;11.55;100.00
48624;BME280;34422;45.802;16.114;2023-04-25T05:35:42;99631.22;;;11.71;100.00
48624;BME280;34422;45.802;16.114;2023-04-25T05:38:09;99630.41;;;11.94;100.00
48624;BME280;34422;45.802;16.114;2023-04-25T05:40:35;99624.28;;;12.51;100.00
48624;BME280;34422;45.802;16.114;2023-04-25T05:43:02;99633.38;;;12.44;100.00
48624;BME280;34422;45.802;16.114;2023-04-25T05:45:29;99630.59;;;12.68;100.00
48624;BME280;34422;45.802;16.114;2023-04-25T05:47:56;99635.94;;;12.91;100.00
48624;BME280;34422;45.802;16.114;2023-04-25T05:50:22;99625.72;;;12.81;100.00
48624;BME280;34422;45.802;16.114;2023-04-25T05:52:51;99632.94;;;12.76;100.00
48624;BME280;34422;45.802;16.114;2023-04-25T05:55:18;99628.91;;;13.07;100.00
48624;BME280;34422;45.802;16.114;2023-04-25T05:57:45;99627.78;;;13.20;100.00
48624;BME280;34422;45.802;16.114;2023-04-25T06:00:13;99622.47;;;13.13;100.00
48624;BME280;34422;45.802;16.114;2023-04-25T06:02:41;99625.19;;;13.13;100.00
48624;BME280;34422;45.802;16.114;2023-04-25T06:05:08;99622.38;;;13.36;100.00
48624;BME280;34422;45.802;16.114;2023-04-25T06:07:35;99621.28;;;13.21;100.00
48624;BME280;34422;45.802;16.114;2023-04-25T06:10:02;99611.84;;;13.23;100.00
48624;BME280;34422;45.802;16.114;2023-04-25T06:15:00;99617.41;;;13.83;100.00
48624;BME280;34422;45.802;16.114;2023-04-25T06:17:27;99618.31;;;14.11;100.00
48624;BME280;34422;45.802;16.114;2023-04-25T06:19:54;99618.78;;;14.24;100.00
48624;BME280;34422;45.802;16.114;2023-04-25T06:22:21;99610.38;;;14.70;100.00
48624;BME280;34422;45.802;16.114;2023-04-25T06:24:48;99608.69;;;14.42;100.00
48624;BME280;34422;45.802;16.114;2023-04-25T06:27:14;99603.41;;;14.35;100.00
48624;BME280;34422;45.802;16.114;2023-04-25T06:29:41;99607.22;;;13.96;100.00
48624;BME280;34422;45.802;16.114;2023-04-25T06:32:08;99608.81;;;14.52;100.00
48624;BME280;34422;45.802;16.114;2023-04-25T06:34:35;99605.63;;;14.16;100.00
48624;BME280;34422;45.802;16.114;2023-04-25T06:37:01;99602.47;;;14.68;100.00
48624;BME280;34422;45.802;16.114;2023-04-25T06:39:28;99607.00;;;14.84;100.00
48624;BME280;34422;45.802;16.114;2023-04-25T06:41:54;99601.31;;;15.13;100.00
48624;BME280;34422;45.802;16.114;2023-04-25T06:44:21;99607.31;;;15.79;100.00
48624;BME280;34422;45.802;16.114;2023-04-25T06:46:52;99600.50;;;15.17;100.00
48624;BME280;34422;45.802;16.114;2023-04-25T06:49:18;99608.19;;;14.45;100.00
48624;BME280;34422;45.802;16.114;2023-04-25T06:51:45;99596.03;;;15.01;100.00
48624;BME280;34422;45.802;16.114;2023-04-25T06:54:12;99596.88;;;15.39;100.00
48624;BME280;34422;45.802;16.114;2023-04-25T06:56:38;99589.91;;;15.85;100.00
48624;BME280;34422;45.802;16.114;2023-04-25T06:59:05;99584.50;;;14.94;100.00
48624;BME280;34422;45.802;16.114;2023-04-25T07:01:32;99584.28;;;15.33;100.00
48624;BME280;34422;45.802;16.114;2023-04-25T07:03:59;99583.69;;;15.25;100.00
48624;BME280;34422;45.802;16.114;2023-04-25T07:06:26;99574.94;;;15.92;100.00
48624;BME280;34422;45.802;16.114;2023-04-25T07:08:54;99575.66;;;14.82;100.00
48624;BME280;34422;45.802;16.114;2023-04-25T07:11:22;99576.09;;;15.27;100.00
48624;BME280;34422;45.802;16.114;2023-04-25T07:13:48;99573.44;;;15.38;100.00
48624;BME280;34422;45.802;16.114;2023-04-25T07:16:16;99570.91;;;15.31;100.00
48624;BME280;34422;45.802;16.114;2023-04-25T07:18:43;99575.16;;;15.49;100.00
48624;BME280;34422;45.802;16.114;2023-04-25T07:21:09;99575.59;;;16.15;100.00
48624;BME280;34422;45.802;16.114;2023-04-25T07:23:36;99577.66;;;16.55;100.00
48624;BME280;34422;45.802;16.114;2023-04-25T07:26:04;99575.91;;;17.06;100.00
48624;BME280;34422;45.802;16.114;2023-04-25T07:28:30;99571.22;;;16.14;100.00
48624;BME280;34422;45.802;16.114;2023-04-25T07:30:57;99584.09;;;16.28;100.00
48624;BME280;34422;45.802;16.114;2023-04-25T07:33:24;99578.75;;;16.59;100.00
48624;BME280;34422;45.802;16.114;2023-04-25T07:35:52;99575.91;;;17.41;100.00
48624;BME280;34422;45.802;16.114;2023-04-25T07:38:18;99569.03;;;16.88;100.00
48624;BME280;34422;45.802;16.114;2023-04-25T07:40:45;99576.50;;;16.41;100.00
48624;BME280;34422;45.802;16.114;2023-04-25T07:43:12;99569.81;;;16.63;100.00
48624;BME280;34422;45.802;16.114;2023-04-25T07:45:41;99566.47;;;16.56;100.00
48624;BME280;34422;45.802;16.114;2023-04-25T07:48:07;99577.28;;;17.44;100.00
48624;BME280;34422;45.802;16.114;2023-04-25T07:50:34;99570.41;;;17.01;100.00
48624;BME280;34422;45.802;16.114;2023-04-25T07:53:01;99567.63;;;16.65;100.00
48624;BME280;34422;45.802;16.114;2023-04-25T07:55:28;99571.78;;;17.59;100.00
48624;BME280;34422;45.802;16.114;2023-04-25T07:57:55;99579.34;;;18.18;100.00
48624;BME280;34422;45.802;16.114;2023-04-25T08:00:21;99589.03;;;17.80;100.00
48624;BME280;34422;45.802;16.114;2023-04-25T08:02:48;99579.94;;;16.78;100.00
48624;BME280;34422;45.802;16.114;2023-04-25T08:05:15;99578.88;;;16.79;100.00
48624;BME280;34422;45.802;16.114;2023-04-25T08:07:43;99573.97;;;15.72;100.00
48624;BME280;34422;45.802;16.114;2023-04-25T08:10:10;99570.53;;;15.49;100.00
48624;BME280;34422;45.802;16.114;2023-04-25T08:12:36;99565.66;;;15.93;100.00
48624;BME280;34422;45.802;16.114;2023-04-25T08:15:04;99574.28;;;17.35;100.00
48624;BME280;34422;45.802;16.114;2023-04-25T08:17:31;99566.63;;;16.24;100.00
48624;BME280;34422;45.802;16.114;2023-04-25T08:19:58;99570.00;;;16.52;100.00
48624;BME280;34422;45.802;16.114;2023-04-25T08:22:25;99575.91;;;17.06;100.00
48624;BME280;34422;45.802;16.114;2023-04-25T08:24:52;99571.81;;;17.34;100.00
48624;BME280;34422;45.802;16.114;2023-04-25T08:27:19;99572.63;;;17.65;100.00
48624;BME280;34422;45.802;16.114;2023-04-25T08:29:47;99576.13;;;17.96;100.00
48624;BME280;34422;45.802;16.114;2023-04-25T08:32:14;99568.31;;;18.93;100.00
48624;BME280;34422;45.802;16.114;2023-04-25T08:34:40;99576.31;;;18.30;100.00
48624;BME280;34422;45.802;16.114;2023-04-25T08:37:08;99578.81;;;19.20;100.00
48624;BME280;34422;45.802;16.114;2023-04-25T08:39:37;99567.28;;;19.23;80.80
48624;BME280;34422;45.802;16.114;2023-04-25T08:42:05;99577.41;;;19.90;78.78
48624;BME280;34422;45.802;16.114;2023-04-25T08:44:35;99568.72;;;19.78;81.01
48624;BME280;34422;45.802;16.114;2023-04-25T08:47:03;99570.38;;;19.45;71.75
48624;BME280;34422;45.802;16.114;2023-04-25T08:49:34;99566.91;;;18.46;74.17
48624;BME280;34422;45.802;16.114;2023-04-25T08:52:02;99569.44;;;20.12;72.33
48624;BME280;34422;45.802;16.114;2023-04-25T08:54:30;99570.63;;;19.14;73.51
48624;BME280;34422;45.802;16.114;2023-04-25T08:57:00;99564.88;;;20.27;72.33
48624;BME280;34422;45.802;16.114;2023-04-25T08:59:31;99574.38;;;19.63;75.90
48624;BME280;34422;45.802;16.114;2023-04-25T09:01:58;99580.25;;;20.28;58.83
48624;BME280;34422;45.802;16.114;2023-04-25T09:04:25;99572.84;;;19.12;62.76
48624;BME280;34422;45.802;16.114;2023-04-25T09:06:52;99562.28;;;18.96;65.04
48624;BME280;34422;45.802;16.114;2023-04-25T09:09:19;99568.03;;;18.35;71.30
48624;BME280;34422;45.802;16.114;2023-04-25T09:11:45;99569.22;;;19.17;73.66
48624;BME280;34422;45.802;16.114;2023-04-25T09:14:17;99555.69;;;19.65;63.21
48624;BME280;34422;45.802;16.114;2023-04-25T09:19:25;99557.25;;;19.08;79.49
48624;BME280;34422;45.802;16.114;2023-04-25T09:21:56;99557.47;;;18.08;75.03
48624;BME280;34422;45.802;16.114;2023-04-25T09:26:58;99554.88;;;18.42;73.26
48624;BME280;34422;45.802;16.114;2023-04-25T09:29:29;99550.38;;;17.97;67.01
48624;BME280;34422;45.802;16.114;2023-04-25T09:34:42;99555.50;;;18.24;77.78
48624;BME280;34422;45.802;16.114;2023-04-25T09:37:10;99555.53;;;18.14;67.53
48624;BME280;34422;45.802;16.114;2023-04-25T09:39:39;99554.41;;;18.20;62.59
48624;BME280;34422;45.802;16.114;2023-04-25T09:42:09;99558.47;;;18.32;73.53
48624;BME280;34422;45.802;16.114;2023-04-25T09:44:35;99552.31;;;18.01;68.08
48624;BME280;34422;45.802;16.114;2023-04-25T09:47:02;99548.91;;;18.30;71.71
48624;BME280;34422;45.802;16.114;2023-04-25T09:49:29;99551.50;;;18.65;70.58
48624;BME280;34422;45.802;16.114;2023-04-25T09:51:57;99547.47;;;18.97;59.17
48624;BME280;34422;45.802;16.114;2023-04-25T09:54:25;99546.84;;;17.91;62.90
48624;BME280;34422;45.802;16.114;2023-04-25T09:56:53;99550.19;;;17.27;71.26
48624;BME280;34422;45.802;16.114;2023-04-25T09:59:21;99544.75;;;17.07;75.30
48624;BME280;34422;45.802;16.114;2023-04-25T10:01:52;99545.25;;;17.70;70.21
48624;BME280;34422;45.802;16.114;2023-04-25T10:04:23;99539.13;;;18.14;71.74
48624;BME280;34422;45.802;16.114;2023-04-25T10:06:51;99544.00;;;18.22;60.93
48624;BME280;34422;45.802;16.114;2023-04-25T10:09:20;99534.41;;;18.78;68.50
48624;BME280;34422;45.802;16.114;2023-04-25T10:11:47;99545.94;;;18.75;60.09
48624;BME280;34422;45.802;16.114;2023-04-25T10:14:14;99529.13;;;18.92;60.64
48624;BME280;34422;45.802;16.114;2023-04-25T10:16:43;99524.69;;;19.30;62.62
48624;BME280;34422;45.802;16.114;2023-04-25T10:19:10;99527.00;;;19.18;56.11
48624;BME280;34422;45.802;16.114;2023-04-25T10:21:46;99524.22;;;18.35;55.53
48624;BME280;34422;45.802;16.114;2023-04-25T10:24:15;99524.13;;;18.55;56.25
48624;BME280;34422;45.802;16.114;2023-04-25T10:26:42;99506.66;;;18.90;54.62
48624;BME280;34422;45.802;16.114;2023-04-25T10:29:09;99504.78;;;18.86;55.02
48624;BME280;34422;45.802;16.114;2023-04-25T10:31:45;99515.22;;;18.78;53.67
48624;BME280;34422;45.802;16.114;2023-04-25T10:34:12;99507.22;;;19.21;53.31
48624;BME280;34422;45.802;16.114;2023-04-25T10:36:39;99501.78;;;18.82;50.74
48624;BME280;34422;45.802;16.114;2023-04-25T10:39:06;99495.56;;;19.05;52.37
48624;BME280;34422;45.802;16.114;2023-04-25T10:41:56;99492.97;;;19.19;54.72
48624;BME280;34422;45.802;16.114;2023-04-25T10:44:26;99487.81;;;19.41;52.24
48624;BME280;34422;45.802;16.114;2023-04-25T10:46:55;99479.94;;;19.35;49.32
48624;BME280;34422;45.802;16.114;2023-04-25T10:49:43;99483.09;;;19.76;49.61
48624;BME280;34422;45.802;16.114;2023-04-25T10:54:44;99476.47;;;19.24;46.71
48624;BME280;34422;45.802;16.114;2023-04-25T10:57:36;99468.72;;;19.84;50.71
48624;BME280;34422;45.802;16.114;2023-04-25T11:05:33;99462.09;;;18.74;45.80
48624;BME280;34422;45.802;16.114;2023-04-25T11:08:02;99452.25;;;19.60;51.26
48624;BME280;34422;45.802;16.114;2023-04-25T11:10:31;99455.19;;;19.69;45.03
48624;BME280;34422;45.802;16.114;2023-04-25T11:12:58;99450.28;;;19.66;45.18
48624;BME280;34422;45.802;16.114;2023-04-25T11:15:27;99446.44;;;19.67;43.19
48624;BME280;34422;45.802;16.114;2023-04-25T11:17:55;99440.88;;;20.14;43.10
48624;BME280;34422;45.802;16.114;2023-04-25T11:20:25;99443.69;;;20.09;39.82
48624;BME280;34422;45.802;16.114;2023-04-25T11:22:52;99439.75;;;19.73;40.23
48624;BME280;34422;45.802;16.114;2023-04-25T11:25:19;99422.09;;;19.31;42.87
48624;BME280;34422;45.802;16.114;2023-04-25T11:27:53;99420.75;;;19.81;41.83
48624;BME280;34422;45.802;16.114;2023-04-25T11:30:21;99417.91;;;20.48;40.16
48624;BME280;34422;45.802;16.114;2023-04-25T11:32:48;99412.13;;;19.88;40.12
48624;BME280;34422;45.802;16.114;2023-04-25T11:35:15;99409.16;;;19.84;42.89
48624;BME280;34422;45.802;16.114;2023-04-25T11:37:43;99412.50;;;19.29;44.00
48624;BME280;34422;45.802;16.114;2023-04-25T11:40:11;99407.56;;;19.31;42.62
48624;BME280;34422;45.802;16.114;2023-04-25T11:42:38;99399.91;;;19.28;43.28
48624;BME280;34422;45.802;16.114;2023-04-25T11:45:06;99403.63;;;19.66;43.28
48624;BME280;34422;45.802;16.114;2023-04-25T11:47:33;99405.91;;;19.59;45.22
48624;BME280;34422;45.802;16.114;2023-04-25T11:50:02;99401.63;;;19.47;45.07
48624;BME280;34422;45.802;16.114;2023-04-25T11:52:43;99395.34;;;18.89;44.84
48624;BME280;34422;45.802;16.114;2023-04-25T11:55:15;99395.56;;;18.98;50.06
48624;BME280;34422;45.802;16.114;2023-04-25T11:57:44;99392.28;;;19.48;45.49
48624;BME280;34422;45.802;16.114;2023-04-25T12:00:12;99395.44;;;18.84;45.12
48624;BME280;34422;45.802;16.114;2023-04-25T12:02:48;99391.63;;;19.09;44.16
48624;BME280;34422;45.802;16.114;2023-04-25T12:05:17;99384.91;;;19.20;46.47
48624;BME280;34422;45.802;16.114;2023-04-25T12:07:44;99382.78;;;19.65;46.33
48624;BME280;34422;45.802;16.114;2023-04-25T12:10:12;99382.06;;;19.97;43.34
48624;BME280;34422;45.802;16.114;2023-04-25T12:12:45;99380.75;;;19.51;44.18
48624;BME280;34422;45.802;16.114;2023-04-25T12:15:17;99374.59;;;19.12;44.15
48624;BME280;34422;45.802;16.114;2023-04-25T12:17:50;99371.09;;;19.78;41.70
48624;BME280;34422;45.802;16.114;2023-04-25T12:20:19;99371.19;;;20.48;39.90
48624;BME280;34422;45.802;16.114;2023-04-25T12:22:47;99361.38;;;20.42;40.14
48624;BME280;34422;45.802;16.114;2023-04-25T12:25:41;99365.00;;;19.81;40.37
48624;BME280;34422;45.802;16.114;2023-04-25T12:28:24;99361.59;;;20.27;39.51
48624;BME280;34422;45.802;16.114;2023-04-25T12:31:02;99355.50;;;20.30;39.27
48624;BME280;34422;45.802;16.114;2023-04-25T12:33:32;99358.66;;;20.74;41.04
48624;BME280;34422;45.802;16.114;2023-04-25T12:35:59;99351.94;;;19.73;42.61
48624;BME280;34422;45.802;16.114;2023-04-25T12:38:31;99341.09;;;20.38;41.38
48624;BME280;34422;45.802;16.114;2023-04-25T12:40:58;99345.34;;;20.49;41.22
48624;BME280;34422;45.802;16.114;2023-04-25T12:43:25;99343.06;;;20.70;40.52
48624;BME280;34422;45.802;16.114;2023-04-25T12:45:53;99341.34;;;19.66;40.17
48624;BME280;34422;45.802;16.114;2023-04-25T12:48:20;99336.03;;;19.70;42.53
48624;BME280;34422;45.802;16.114;2023-04-25T12:50:48;99329.50;;;19.42;42.29
48624;BME280;34422;45.802;16.114;2023-04-25T12:53:16;99331.97;;;19.43;42.03
48624;BME280;34422;45.802;16.114;2023-04-25T12:55:43;99331.81;;;19.11;42.63
48624;BME280;34422;45.802;16.114;2023-04-25T12:58:13;99342.72;;;18.92;43.25
48624;BME280;34422;45.802;16.114;2023-04-25T13:00:40;99341.41;;;18.85;42.77
48624;BME280;34422;45.802;16.114;2023-04-25T13:03:06;99336.41;;;18.29;44.16
48624;BME280;34422;45.802;16.114;2023-04-25T13:05:33;99336.03;;;18.40;42.70
48624;BME280;34422;45.802;16.114;2023-04-25T13:08:00;99328.44;;;18.66;44.64